Time;durP1;ratioP1;P1;durP2;ratioP2;P2;SDS_P1;SDS_P2;PMS_P1;PMS_P2;Temp;Humidity;BMP_temperature;BMP_pressure;BME280_temperature;BME280_humidity;BME280_pressure;Samples;Min_cycle;Max_cycle;Signal;HPM_P1;HPM_P2
2022/03/18 00:00:28;;;;;;;23.55;12.07;;;;;;;2.19;100.00;99289.25;4923710;29;20154;-90
2022/03/18 00:02:54;;;;;;;16.92;9.98;;;;;;;2.15;100.00;99298.06;4940410;28;20031;-90
2022/03/18 00:05:21;;;;;;;18.40;9.90;;;;;;;2.06;100.00;99303.34;4939551;29;20411;-90
2022/03/18 00:07:47;;;;;;;22.58;10.30;;;;;;;2.12;100.00;99302.47;4972893;28;20478;-90
2022/03/18 00:10:14;;;;;;;16.92;9.80;;;;;;;2.10;100.00;99315.66;4963564;28;20031;-91
2022/03/18 00:12:40;;;;;;;19.85;9.95;;;;;;;2.11;100.00;99291.03;4968242;28;20037;-91
2022/03/18 00:15:09;;;;;;;22.27;11.88;;;;;;;2.16;100.00;99304.22;4948366;28;20121;-90
2022/03/18 00:17:36;;;;;;;22.27;11.45;;;;;;;2.05;100.00;99298.97;4968745;28;20035;-90
2022/03/18 00:20:02;;;;;;;21.15;10.35;;;;;;;2.18;100.00;99305.13;4961630;28;20027;-90
2022/03/18 00:22:28;;;;;;;17.23;9.93;;;;;;;2.05;100.00;99303.34;4952053;28;20485;-90
2022/03/18 00:24:53;;;;;;;17.73;10.10;;;;;;;2.06;100.00;99303.34;4948429;28;20121;-89
2022/03/18 00:27:19;;;;;;;16.27;9.27;;;;;;;1.91;100.00;99283.97;4945843;28;20037;-91
2022/03/18 00:29:44;;;;;;;19.08;9.70;;;;;;;1.95;100.00;99286.63;4961488;28;20418;-89
2022/03/18 00:32:10;;;;;;;21.33;11.57;;;;;;;1.93;100.00;99296.31;4974987;28;20086;-89
2022/03/18 00:34:36;;;;;;;19.65;9.75;;;;;;;1.94;100.00;99294.56;4947845;28;20023;-90
2022/03/18 00:37:01;;;;;;;14.82;9.05;;;;;;;1.83;100.00;99288.38;4974031;28;20039;-89
2022/03/18 00:39:27;;;;;;;18.77;10.20;;;;;;;1.94;100.00;99307.75;4961242;28;20029;-90
2022/03/18 00:41:52;;;;;;;21.45;9.45;;;;;;;1.68;100.00;99283.97;4977226;28;20035;-89
2022/03/18 00:44:19;;;;;;;17.63;9.43;;;;;;;1.79;100.00;99291.88;4972203;28;20077;-88
2022/03/18 00:46:44;;;;;;;16.10;8.85;;;;;;;1.77;100.00;99288.38;4953676;28;20039;-90
2022/03/18 00:52:06;;;;;;;17.83;9.68;;;;;;;1.84;100.00;99311.25;4962347;28;20101;-89
2022/03/18 00:54:35;;;;;;;16.15;9.05;;;;;;;1.89;100.00;99314.78;4945702;28;20022;-89
2022/03/18 00:57:01;;;;;;;16.83;9.73;;;;;;;1.98;100.00;99320.94;4954154;28;20113;-89
2022/03/18 00:59:28;;;;;;;15.07;9.25;;;;;;;1.95;100.00;99326.22;4952213;28;20480;-88
2022/03/18 01:01:55;;;;;;;20.35;10.18;;;;;;;1.94;100.00;99328.88;4969875;28;20481;-89
2022/03/18 01:04:21;;;;;;;18.73;9.95;;;;;;;1.90;100.00;99321.81;4952546;28;20027;-89
2022/03/18 01:06:48;;;;;;;16.90;9.93;;;;;;;1.63;100.00;99270.78;4967662;28;20042;-89
2022/03/18 01:09:14;;;;;;;19.30;10.20;;;;;;;1.76;100.00;99310.34;4968465;28;20555;-89
2022/03/18 01:11:39;;;;;;;18.27;10.95;;;;;;;1.85;100.00;99310.34;4967327;28;20056;-89
2022/03/18 01:14:05;;;;;;;18.85;10.55;;;;;;;1.85;100.00;99305.97;4946423;28;20034;-88
2022/03/18 01:16:30;;;;;;;17.88;9.63;;;;;;;1.85;100.00;99305.09;4951531;28;20491;-89
2022/03/18 01:18:56;;;;;;;14.63;9.50;;;;;;;1.79;100.00;99313.00;4946176;28;20034;-89
2022/03/18 01:21:21;;;;;;;18.90;9.40;;;;;;;1.78;100.00;99321.81;4960949;28;20487;-90
2022/03/18 01:23:47;;;;;;;18.08;10.38;;;;;;;1.61;100.00;99314.75;4957649;28;20031;-90
2022/03/18 01:26:13;;;;;;;16.85;10.20;;;;;;;1.77;100.00;99325.31;4963161;28;20414;-90
2022/03/18 01:28:39;;;;;;;20.77;10.15;;;;;;;1.82;100.00;99323.53;4947458;28;20030;-89
2022/03/18 01:31:05;;;;;;;17.70;9.95;;;;;;;1.81;100.00;99309.50;4946910;28;20481;-89
2022/03/18 01:33:30;;;;;;;19.40;9.52;;;;;;;1.61;100.00;99314.75;4951760;28;20050;-91
2022/03/18 01:35:56;;;;;;;17.35;9.95;;;;;;;1.55;100.00;99308.56;4973829;28;20086;-88
2022/03/18 01:38:22;;;;;;;15.82;9.05;;;;;;;1.73;100.00;99323.53;4952563;28;20418;-91
2022/03/18 01:40:47;;;;;;;16.10;9.07;;;;;;;1.73;100.00;99308.59;4960347;28;20054;-89
2022/03/18 01:43:13;;;;;;;16.98;8.57;;;;;;;1.83;100.00;99314.75;4965905;28;20050;-87
2022/03/18 01:45:39;;;;;;;13.57;8.80;;;;;;;1.89;100.00;99325.31;4943870;28;20034;-88
2022/03/18 01:48:05;;;;;;;17.13;9.45;;;;;;;1.89;100.00;99320.94;4944942;28;20041;-88
2022/03/18 01:50:31;;;;;;;20.42;9.63;;;;;;;1.77;100.00;99299.81;4971658;28;20411;-88
2022/03/18 01:52:58;;;;;;;15.05;9.07;;;;;;;1.68;100.00;99304.19;4963363;28;20066;-88
2022/03/18 01:55:24;;;;;;;18.73;9.30;;;;;;;1.66;100.00;99316.50;4951257;28;20032;-89
2022/03/18 01:57:50;;;;;;;19.08;11.13;;;;;;;1.83;100.00;99325.31;4958126;28;20031;-87
2022/03/18 02:00:18;;;;;;;26.23;13.32;;;;;;;1.80;100.00;99336.75;4953973;28;20030;-89
2022/03/18 02:02:44;;;;;;;19.65;10.65;;;;;;;1.78;100.00;99324.44;4953819;28;20097;-88
2022/03/18 02:05:10;;;;;;;19.10;9.27;;;;;;;1.80;100.00;99335.88;4959664;28;20035;-89
2022/03/18 02:07:37;;;;;;;16.67;9.55;;;;;;;1.87;100.00;99327.09;4942092;28;20052;-89
2022/03/18 02:10:21;;;;;;;19.85;9.63;;;;;;;1.77;100.00;99322.66;4922678;29;20110;-89
2022/03/18 02:12:46;;;;;;;15.25;9.15;;;;;;;1.77;100.00;99312.13;4932483;29;20037;-89
2022/03/18 02:15:12;;;;;;;17.05;9.10;;;;;;;1.80;100.00;99327.94;4921619;29;20051;-89
2022/03/18 02:17:38;;;;;;;22.25;9.57;;;;;;;1.68;100.00;99307.72;4920436;29;20043;-90
2022/03/18 02:20:04;;;;;;;21.05;9.77;;;;;;;1.78;100.00;99319.16;4920029;29;20023;-89
2022/03/18 02:22:48;;;;;;;22.05;10.68;;;;;;;1.85;100.00;99336.75;4925261;29;20119;-89
2022/03/18 02:25:13;;;;;;;19.38;11.20;;;;;;;1.82;100.00;99349.94;4921262;29;20508;-88
2022/03/18 02:27:41;;;;;;;17.70;10.88;;;;;;;1.68;100.00;99334.09;4936786;29;20036;-90
2022/03/18 02:30:08;;;;;;;23.50;10.90;;;;;;;1.84;100.00;99348.19;4932545;29;20092;-89
2022/03/18 02:32:35;;;;;;;19.48;10.48;;;;;;;1.89;100.00;99356.97;4915665;29;20047;-90
2022/03/18 02:35:01;;;;;;;20.38;10.23;;;;;;;1.76;100.00;99339.38;4920515;29;20054;-87
2022/03/18 02:37:28;;;;;;;21.13;11.02;;;;;;;1.73;100.00;99361.34;4919559;29;20031;-88
2022/03/18 02:39:54;;;;;;;19.27;10.20;;;;;;;1.61;100.00;99340.22;4920236;29;20495;-89
2022/03/18 02:42:20;;;;;;;21.10;11.23;;;;;;;1.66;100.00;99348.16;4936390;29;20043;-89
2022/03/18 02:44:46;;;;;;;19.90;11.50;;;;;;;1.75;100.00;99362.25;4936695;29;20487;-89
2022/03/18 02:47:11;;;;;;;19.25;9.95;;;;;;;1.76;100.00;99350.81;4936772;29;20031;-89
2022/03/18 02:49:37;;;;;;;19.35;10.98;;;;;;;1.57;100.00;99349.00;4936866;29;20042;-89
2022/03/18 02:52:03;;;;;;;18.55;11.68;;;;;;;1.28;100.00;99348.03;4921505;29;20028;-90
2022/03/18 02:54:29;;;;;;;20.00;11.70;;;;;;;1.34;100.00;99348.94;4921762;29;20039;-89
2022/03/18 02:56:54;;;;;;;20.42;10.82;;;;;;;1.41;100.00;99348.09;4921061;29;20094;-90
2022/03/18 02:59:20;;;;;;;22.52;11.50;;;;;;;1.45;100.00;99352.47;4922120;29;20114;-89
2022/03/18 03:08:01;;;;;;;20.27;10.15;;;;;;;1.28;100.00;99354.19;4974200;28;20061;-89
2022/03/18 03:10:31;;;;;;;17.83;10.38;;;;;;;1.42;100.00;99385.84;4986815;28;20047;-90
2022/03/18 03:12:58;;;;;;;21.15;10.90;;;;;;;1.24;100.00;99364.69;4993206;28;20030;-90
2022/03/18 03:15:24;;;;;;;17.33;10.77;;;;;;;1.25;100.00;99363.84;4961407;28;20039;-90
2022/03/18 03:17:49;;;;;;;20.55;10.75;;;;;;;1.13;100.00;99354.13;4995330;28;20086;-89
2022/03/18 03:20:15;;;;;;;18.00;10.48;;;;;;;1.18;100.00;99370.84;4979075;28;20027;-89
2022/03/18 03:22:41;;;;;;;19.27;10.50;;;;;;;1.18;100.00;99383.13;4973429;28;20058;-90
2022/03/18 03:25:07;;;;;;;20.30;10.30;;;;;;;1.16;100.00;99375.22;4995354;28;20015;-90
2022/03/18 03:27:33;;;;;;;17.50;10.38;;;;;;;1.18;100.00;99384.00;4995778;28;20015;-90
2022/03/18 03:30:08;;;;;;;19.08;10.52;;;;;;;1.28;100.00;99408.66;4995314;28;20034;-89
2022/03/18 03:32:34;;;;;;;19.38;9.73;;;;;;;1.16;100.00;99398.06;4995096;28;20050;-89
2022/03/18 03:34:59;;;;;;;17.15;10.05;;;;;;;1.02;100.00;99376.88;4994830;28;20085;-90
2022/03/18 03:37:26;;;;;;;18.60;9.95;;;;;;;0.97;100.00;99383.91;4993106;28;20030;-88
2022/03/18 03:39:52;;;;;;;22.20;10.32;;;;;;;0.94;100.00;99383.88;4980965;28;20027;-91
2022/03/18 03:42:18;;;;;;;26.00;12.48;;;;;;;1.06;100.00;99412.94;4948672;28;20473;-90
2022/03/18 03:44:44;;;;;;;23.50;11.70;;;;;;;0.83;100.00;99394.34;4947640;28;20026;-90
2022/03/18 03:47:10;;;;;;;18.38;10.52;;;;;;;0.66;100.00;99389.84;4958799;28;20089;-90
2022/03/18 03:49:35;;;;;;;27.35;12.05;;;;;;;0.50;100.00;99373.94;4979717;28;20034;-89
2022/03/18 03:52:01;;;;;;;21.23;12.00;;;;;;;0.54;100.00;99394.16;4979496;28;20027;-90
2022/03/18 03:54:29;;;;;;;20.83;10.93;;;;;;;0.44;100.00;99383.53;4965365;28;20027;-90
2022/03/18 03:56:55;;;;;;;22.00;10.77;;;;;;;0.54;100.00;99411.72;4981281;28;20489;-91
2022/03/18 03:59:22;;;;;;;18.45;9.70;;;;;;;0.38;100.00;99409.81;4978971;28;20597;-89
2022/03/18 04:01:47;;;;;;;20.02;10.70;;;;;;;0.18;100.00;99378.09;4964261;28;20027;-89
2022/03/18 04:04:13;;;;;;;26.77;12.07;;;;;;;0.16;100.00;99392.06;4981423;28;20410;-89
2022/03/18 04:06:39;;;;;;;73.43;24.02;;;;;;;0.04;100.00;99366.53;4965727;28;20062;-90
2022/03/18 04:09:05;;;;;;;77.68;26.42;;;;;;;0.23;100.00;99404.41;4965219;28;20487;-89
2022/03/18 04:11:30;;;;;;;45.75;19.95;;;;;;;0.15;100.00;99393.84;4975574;28;20039;-90
2022/03/18 04:13:56;;;;;;;31.67;16.40;;;;;;;-0.04;100.00;99387.53;4946851;28;20051;-89
2022/03/18 04:16:22;;;;;;;32.38;16.42;;;;;;;0.12;100.00;99401.72;4949880;28;20035;-90
2022/03/18 04:18:48;;;;;;;32.33;15.98;;;;;;;0.20;100.00;99415.81;4964296;28;20062;-90
2022/03/18 04:21:14;;;;;;;32.28;15.95;;;;;;;0.11;100.00;99413.09;4947308;28;20031;-88
2022/03/18 04:23:43;;;;;;;28.88;14.90;;;;;;;0.01;100.00;99411.22;4963790;28;20030;-89
2022/03/18 04:26:08;;;;;;;28.48;14.25;;;;;;;-0.12;100.00;99406.72;4947848;28;20034;-89
2022/03/18 04:28:34;;;;;;;25.50;12.88;;;;;;;0.11;100.00;99442.03;4962324;28;20355;-89
2022/03/18 04:31:00;;;;;;;20.70;11.80;;;;;;;0.02;100.00;99417.38;4962499;28;20085;-90
2022/03/18 04:36:46;;;;;;;22.77;11.40;;;;;;;0.21;100.00;99459.69;4980281;28;20114;-77
2022/03/18 04:39:11;;;;;;;19.67;12.00;;;;;;;0.03;100.00;99420.03;4976692;28;20058;-88
2022/03/18 04:41:37;;;;;;;30.83;12.25;;;;;;;0.19;100.00;99437.72;4970786;28;20042;-89
2022/03/18 04:44:03;;;;;;;24.88;12.70;;;;;;;0.09;100.00;99412.22;4955047;28;20133;-87
2022/03/18 04:46:31;;;;;;;19.48;11.38;;;;;;;0.31;100.00;99448.34;4960078;28;20495;-87
2022/03/18 04:52:35;;;;;;;27.50;14.52;;;;;;;0.30;100.00;99454.50;4884143;29;20093;-87
2022/03/18 04:55:43;;;;;;;27.60;13.57;;;;;;;0.40;100.00;99474.75;4882752;29;20041;-86
2022/03/18 04:58:11;;;;;;;32.42;15.43;;;;;;;-0.05;100.00;99409.44;4900854;29;20031;-89
2022/03/18 05:00:41;;;;;;;32.22;15.38;;;;;;;0.11;100.00;99410.47;4905646;28;20021;-89
2022/03/18 05:03:10;;;;;;;30.75;15.35;;;;;;;0.32;100.00;99422.91;4946697;28;20026;-91
2022/03/18 05:05:37;;;;;;;30.50;14.55;;;;;;;0.59;100.00;99451.22;4947055;28;20031;-90
2022/03/18 05:08:03;;;;;;;20.40;11.85;;;;;;;1.00;100.00;99487.56;4944968;28;20050;-87
2022/03/18 05:10:30;;;;;;;19.67;11.60;;;;;;;1.01;100.00;99462.97;4945944;28;20446;-87
2022/03/18 05:12:56;;;;;;;27.50;14.15;;;;;;;1.25;100.00;99459.59;4940073;29;20031;-88
2022/03/18 05:15:32;;;;;;;23.15;13.07;;;;;;;1.60;100.00;99460.66;4937849;28;20034;-88
2022/03/18 05:21:26;;;;;;;39.05;19.05;;;;;;;2.87;100.00;99493.47;4982845;28;20085;-92
2022/03/18 05:23:52;;;;;;;43.80;20.05;;;;;;;3.64;93.92;99478.34;4947752;28;20509;-88
2022/03/18 05:29:31;;;;;;;36.55;18.65;;;;;;;6.57;71.19;99495.16;4979136;28;20043;-89
2022/03/18 05:31:57;;;;;;;31.67;18.17;;;;;;;7.64;66.98;99505.75;4947560;28;20110;-91
2022/03/18 05:34:23;;;;;;;36.15;19.77;;;;;;;8.44;61.41;99479.25;4963591;28;20559;-86
2022/03/18 05:36:49;;;;;;;37.15;18.33;;;;;;;8.99;57.36;99500.19;4943261;28;20026;-87
2022/03/18 05:39:18;;;;;;;33.13;17.73;;;;;;;9.69;56.22;99509.97;4944869;28;20031;-88
2022/03/18 05:41:44;;;;;;;39.88;21.58;;;;;;;9.38;55.48;99509.03;4954076;28;20113;-86
2022/03/18 05:44:11;;;;;;;50.05;27.67;;;;;;;9.28;56.48;99508.38;4963055;28;20113;-88
2022/03/18 05:46:37;;;;;;;49.10;26.17;;;;;;;9.51;55.60;99526.47;4955473;28;20031;-87
2022/03/18 05:49:03;;;;;;;59.78;31.45;;;;;;;9.50;55.38;99519.38;4976575;28;20388;-89
2022/03/18 05:51:30;;;;;;;40.38;22.33;;;;;;;9.62;54.36;99527.06;4943383;28;20031;-88
2022/03/18 05:53:56;;;;;;;24.67;13.32;;;;;;;10.63;50.07;99493.88;4930451;28;20054;-88
2022/03/18 05:59:07;;;;;;;12.38;7.20;;;;;;;10.92;44.90;99461.69;4969514;28;20038;-90
2022/03/18 06:01:37;;;;;;;11.95;6.68;;;;;;;11.41;42.47;99482.38;4974487;28;20090;-89
2022/03/18 06:04:04;;;;;;;14.05;5.88;;;;;;;11.47;41.12;99457.16;4976900;28;20026;-89
2022/03/18 06:06:30;;;;;;;7.50;4.97;;;;;;;12.29;38.99;99463.09;4950030;28;20055;-88
2022/03/18 06:11:51;;;;;;;24.67;10.55;;;;;;;12.32;38.86;99462.97;4976160;28;20569;-89
2022/03/18 06:14:19;;;;;;;10.65;5.82;;;;;;;12.10;37.75;99460.22;4974171;28;20037;-89
2022/03/18 06:16:49;;;;;;;10.75;6.10;;;;;;;12.71;37.40;99469.47;4949695;28;20031;-88
2022/03/18 06:19:19;;;;;;;11.63;6.13;;;;;;;12.08;38.20;99469.28;4975251;28;20023;-88
2022/03/18 06:21:45;;;;;;;8.63;5.57;;;;;;;11.49;38.62;99466.03;4964879;28;20038;-89
2022/03/18 06:24:12;;;;;;;7.63;4.95;;;;;;;12.31;36.87;99470.16;4972223;28;20023;-89
2022/03/18 06:26:56;;;;;;;6.50;4.72;;;;;;;12.69;34.13;99414.09;4943449;28;20027;-90
2022/03/18 06:29:22;;;;;;;11.65;5.30;;;;;;;12.54;33.20;99441.53;4959701;28;20038;-89
2022/03/18 06:31:49;;;;;;;11.10;5.75;;;;;;;12.75;34.53;99438.88;4943140;28;20023;-89
2022/03/18 06:34:15;;;;;;;9.80;5.95;;;;;;;13.33;34.10;99442.75;4944908;28;20093;-89
2022/03/18 06:36:43;;;;;;;9.98;5.88;;;;;;;13.20;35.07;99480.94;4945553;28;20554;-88
2022/03/18 06:39:08;;;;;;;14.48;6.90;;;;;;;12.11;36.69;99478.09;4944716;28;20035;-90
2022/03/18 06:41:35;;;;;;;10.00;6.00;;;;;;;12.01;37.58;99506.16;4944333;28;20058;-90
2022/03/18 06:44:01;;;;;;;15.27;9.55;;;;;;;12.09;35.89;99436.16;4970891;28;20027;-88
2022/03/18 06:46:27;;;;;;;13.50;7.88;;;;;;;12.49;34.90;99447.06;4973867;28;20090;-89
2022/03/18 06:48:52;;;;;;;13.40;7.13;;;;;;;13.81;34.53;99485.44;4944358;28;20106;-89
2022/03/18 06:51:18;;;;;;;13.40;7.50;;;;;;;14.41;33.71;99462.13;4944882;28;20035;-88
2022/03/18 06:53:44;;;;;;;9.60;5.65;;;;;;;13.43;33.10;99468.31;4943551;28;20085;-89
2022/03/18 06:56:12;;;;;;;10.45;5.15;;;;;;;13.82;32.85;99459.41;4944258;28;20034;-88
2022/03/18 06:58:38;;;;;;;10.70;5.63;;;;;;;14.74;32.55;99473.09;4944569;28;20034;-89
2022/03/18 07:01:04;;;;;;;11.82;6.22;;;;;;;14.27;32.07;99476.22;4943694;28;20043;-89
2022/03/18 07:03:29;;;;;;;9.32;6.25;;;;;;;13.30;33.07;99474.25;4944210;28;20096;-89
2022/03/18 07:05:55;;;;;;;8.32;5.72;;;;;;;13.76;33.21;99470.44;4944393;28;20118;-89
2022/03/18 07:08:20;;;;;;;8.13;4.82;;;;;;;12.59;32.84;99467.28;4971176;28;20041;-88
2022/03/18 07:10:46;;;;;;;9.40;5.82;;;;;;;12.91;34.73;99474.06;4961262;28;20427;-87
2022/03/18 07:13:12;;;;;;;16.30;6.20;;;;;;;12.96;35.14;99485.47;4943384;28;20121;-89
2022/03/18 07:15:37;;;;;;;9.43;5.82;;;;;;;11.71;34.91;99505.47;4955669;28;20117;-90
2022/03/18 07:18:04;;;;;;;16.00;7.13;;;;;;;12.80;34.31;99492.38;4948262;28;20030;-88
2022/03/18 07:20:31;;;;;;;11.48;5.32;;;;;;;13.42;31.13;99490.72;4948409;28;20031;-89
2022/03/18 07:23:22;;;;;;;12.10;6.72;;;;;;;12.92;32.54;99486.56;4948443;28;20031;-86
2022/03/18 07:25:48;;;;;;;8.57;5.35;;;;;;;12.92;33.23;99508.91;4965719;28;20062;-88
2022/03/18 07:28:16;;;;;;;9.77;5.63;;;;;;;12.63;34.18;99468.91;4964442;28;20065;-89
2022/03/18 07:30:43;;;;;;;8.93;5.18;;;;;;;12.74;33.21;99471.16;4952986;28;20102;-88
2022/03/18 07:33:09;;;;;;;9.90;6.18;;;;;;;12.85;34.73;99474.31;4949710;28;20114;-89
2022/03/18 07:35:35;;;;;;;10.90;6.05;;;;;;;13.25;33.87;99463.69;4947863;28;20614;-89
2022/03/18 07:38:03;;;;;;;8.77;5.65;;;;;;;13.93;33.00;99489.44;4946893;28;20062;-89
2022/03/18 07:40:32;;;;;;;17.55;5.95;;;;;;;14.65;31.27;99504.94;4959093;28;20023;-89
2022/03/18 07:42:58;;;;;;;10.23;6.25;;;;;;;13.26;34.46;99502.22;4945868;28;20031;-89
2022/03/18 07:45:29;;;;;;;10.93;6.13;;;;;;;12.99;34.34;99520.28;4978671;28;20042;-88
2022/03/18 07:47:59;;;;;;;10.55;5.35;;;;;;;12.52;35.09;99497.97;4970961;28;20081;-88
2022/03/18 07:50:27;;;;;;;9.32;5.32;;;;;;;13.31;31.38;99489.44;4967611;28;20583;-88
2022/03/18 07:52:58;;;;;;;8.82;5.80;;;;;;;14.29;28.62;99470.72;4963237;28;20132;-89
2022/03/18 07:55:27;;;;;;;8.48;4.72;;;;;;;15.45;28.21;99494.72;4970336;28;20566;-91
2022/03/18 07:57:53;;;;;;;10.95;5.13;;;;;;;13.93;30.37;99489.44;4946384;28;20042;-89
2022/03/18 08:00:19;;;;;;;12.02;6.28;;;;;;;13.98;32.01;99495.47;4946301;28;20026;-88
2022/03/18 08:02:46;;;;;;;11.45;5.53;;;;;;;14.45;29.60;99491.53;4946960;28;20448;-89
2022/03/18 08:05:13;;;;;;;11.23;5.97;;;;;;;13.28;29.55;99474.31;4945895;28;20034;-88
2022/03/18 08:07:42;;;;;;;16.98;6.10;;;;;;;13.77;30.85;99489.22;4954313;28;20433;-88
2022/03/18 08:10:09;;;;;;;12.15;6.00;;;;;;;15.31;29.34;99485.56;4965170;28;20418;-90
2022/03/18 08:12:36;;;;;;;18.17;6.10;;;;;;;15.30;29.31;99500.88;4946856;28;20027;-89
2022/03/18 08:15:16;;;;;;;9.68;5.70;;;;;;;14.36;30.97;99493.78;4949844;28;20030;-88
2022/03/18 08:17:43;;;;;;;11.68;5.85;;;;;;;14.86;28.49;99467.16;4977237;28;20038;-87
2022/03/18 08:20:10;;;;;;;9.02;5.25;;;;;;;15.06;28.16;99470.63;4960768;28;20057;-90
2022/03/18 08:22:36;;;;;;;10.43;5.50;;;;;;;13.87;30.61;99495.94;4945983;28;20034;-89
2022/03/18 08:25:03;;;;;;;16.08;5.82;;;;;;;14.19;30.35;99505.28;4945423;28;20061;-90
2022/03/18 08:27:29;;;;;;;12.52;7.25;;;;;;;15.22;27.42;99489.59;4946157;28;20495;-89
2022/03/18 08:29:59;;;;;;;9.75;5.00;;;;;;;16.39;26.56;99478.97;4946134;28;20041;-90
2022/03/18 08:32:26;;;;;;;10.23;5.50;;;;;;;17.27;24.79;99468.56;4952467;28;20034;-88
2022/03/18 08:34:51;;;;;;;12.10;5.30;;;;;;;15.99;27.64;99469.44;4978981;28;20415;-88
2022/03/18 08:40:19;;;;;;;8.55;4.72;;;;;;;14.64;29.31;99472.69;4986365;28;20054;-90
2022/03/18 08:42:44;;;;;;;11.60;5.40;;;;;;;16.28;25.85;99484.06;4978592;28;20026;-89
2022/03/18 08:45:10;;;;;;;10.45;5.30;;;;;;;17.21;26.20;99456.28;4978419;28;20030;-89
2022/03/18 08:47:36;;;;;;;15.25;5.97;;;;;;;17.29;26.45;99462.09;4960776;28;20030;-88
2022/03/18 08:50:03;;;;;;;11.70;5.63;;;;;;;17.29;24.34;99458.50;4977054;28;20050;-88
2022/03/18 08:52:28;;;;;;;14.13;5.53;;;;;;;15.22;27.00;99483.34;4978331;28;20090;-88
2022/03/18 08:54:54;;;;;;;11.00;5.30;;;;;;;12.79;29.81;99469.19;4961295;28;20026;-88
2022/03/18 08:57:20;;;;;;;18.05;7.32;;;;;;;12.10;31.45;99497.78;4976536;28;20030;-87
2022/03/18 08:59:45;;;;;;;13.20;6.18;;;;;;;13.92;30.96;99498.44;4976949;28;20052;-89
2022/03/18 09:02:11;;;;;;;23.60;6.35;;;;;;;15.38;27.62;99481.63;4977311;28;20027;-87
2022/03/18 09:04:36;;;;;;;21.08;8.20;;;;;;;17.56;26.21;99461.47;4976673;28;20027;-88
2022/03/18 09:07:02;;;;;;;18.70;9.63;;;;;;;15.99;25.91;99461.34;4962825;28;20054;-89
2022/03/18 09:09:28;;;;;;;17.02;7.65;;;;;;;15.93;25.44;99450.00;4947721;28;20088;-89
2022/03/18 09:11:54;;;;;;;17.73;8.70;;;;;;;13.76;28.36;99463.25;4948743;28;20035;-87
2022/03/18 09:14:20;;;;;;;28.33;7.95;;;;;;;14.11;31.01;99469.78;4975888;28;20391;-88
2022/03/18 09:16:47;;;;;;;10.88;7.38;;;;;;;14.03;28.58;99463.84;4975573;28;20499;-88
2022/03/18 09:19:13;;;;;;;10.15;5.63;;;;;;;14.64;26.85;99446.59;4974561;28;20039;-86
2022/03/18 09:21:38;;;;;;;9.88;5.80;;;;;;;12.23;29.73;99469.56;4960679;28;20038;-84
2022/03/18 09:24:04;;;;;;;15.57;5.70;;;;;;;10.53;31.76;99471.00;4944672;28;20058;-87
2022/03/18 09:26:31;;;;;;;11.13;6.18;;;;;;;9.11;33.63;99473.19;4943661;28;20112;-89
2022/03/18 09:28:56;;;;;;;16.95;7.00;;;;;;;8.54;35.58;99470.16;4955741;28;20503;-87
2022/03/18 09:31:22;;;;;;;15.45;6.45;;;;;;;8.07;34.79;99473.81;4947908;28;20058;-88
2022/03/18 09:33:52;;;;;;;11.57;5.50;;;;;;;8.38;35.08;99488.28;4976021;28;20505;-88
2022/03/18 09:36:18;;;;;;;15.05;5.60;;;;;;;8.37;36.31;99498.97;4975681;28;20041;-88
2022/03/18 09:38:48;;;;;;;8.80;5.25;;;;;;;10.11;34.70;99487.38;4965038;28;20030;-88
2022/03/18 09:41:14;;;;;;;11.05;5.20;;;;;;;11.22;31.51;99479.44;4959292;28;20038;-88
2022/03/18 09:43:40;;;;;;;14.13;6.28;;;;;;;11.37;31.52;99478.03;4968209;28;20030;-88
2022/03/18 09:46:12;;;;;;;8.77;5.72;;;;;;;10.17;32.18;99481.00;4943509;28;20070;-88
2022/03/18 09:48:39;;;;;;;14.52;5.60;;;;;;;9.82;33.13;99495.34;4927432;28;20039;-88
2022/03/18 09:51:04;;;;;;;11.80;5.80;;;;;;;10.56;35.08;99493.19;4942562;28;20420;-88
2022/03/18 09:53:30;;;;;;;10.05;5.22;;;;;;;11.46;31.18;99479.53;4942336;28;20030;-88
2022/03/18 09:55:56;;;;;;;26.17;7.50;;;;;;;10.64;31.88;99479.59;4951635;28;20054;-88
2022/03/18 09:58:22;;;;;;;11.48;6.78;;;;;;;10.11;32.24;99491.84;4975222;28;20031;-88
2022/03/18 10:00:51;;;;;;;13.07;5.97;;;;;;;9.75;32.02;99472.41;4949099;28;20481;-88
2022/03/18 10:03:19;;;;;;;8.40;5.40;;;;;;;9.63;31.58;99476.25;4958388;28;20031;-87
2022/03/18 10:05:59;;;;;;;10.13;6.05;;;;;;;9.37;34.67;99497.47;4958404;28;20023;-88
2022/03/18 10:08:44;;;;;;;11.70;5.85;;;;;;;9.43;33.84;99488.41;4959654;28;20039;-89
2022/03/18 10:11:22;;;;;;;12.63;6.03;;;;;;;9.14;34.66;99490.03;4958238;28;20093;-87
2022/03/18 10:14:02;;;;;;;25.40;6.65;;;;;;;9.15;35.75;99510.47;4958923;28;20081;-88
2022/03/18 10:16:34;;;;;;;10.43;6.00;;;;;;;8.65;34.75;99502.78;4955512;28;20494;-88
2022/03/18 10:19:01;;;;;;;11.90;6.85;;;;;;;9.69;33.96;99504.63;4951115;28;20042;-87
2022/03/18 10:21:30;;;;;;;16.80;8.20;;;;;;;11.79;33.31;99513.22;4948617;28;20023;-88
2022/03/18 10:24:10;;;;;;;12.75;6.82;;;;;;;11.86;31.19;99474.53;4958579;28;20035;-88
2022/03/18 10:26:39;;;;;;;12.20;6.03;;;;;;;12.77;29.65;99471.03;4974617;28;20031;-88
2022/03/18 10:29:11;;;;;;;15.57;6.93;;;;;;;12.29;31.11;99477.38;4975194;28;20582;-89
2022/03/18 10:31:37;;;;;;;11.00;6.33;;;;;;;12.73;29.51;99464.94;4975821;28;20026;-88
2022/03/18 10:37:06;;;;;;;11.38;7.30;;;;;;;12.04;31.22;99481.91;4968229;28;20037;-89
2022/03/18 10:39:33;;;;;;;15.93;7.00;;;;;;;11.07;31.89;99466.56;4944137;28;20038;-88
2022/03/18 10:42:01;;;;;;;12.32;6.28;;;;;;;9.91;33.05;99471.00;4977464;28;20422;-88
2022/03/18 10:44:59;;;;;;;23.40;7.90;;;;;;;9.60;35.17;99494.16;4942608;28;20491;-88
2022/03/18 10:47:28;;;;;;;12.38;6.18;;;;;;;10.71;31.10;99478.44;4944232;28;20103;-88
2022/03/18 10:50:11;;;;;;;20.27;7.50;;;;;;;10.94;30.86;99457.19;4966140;28;20030;-88
2022/03/18 10:52:49;;;;;;;42.38;10.48;;;;;;;11.58;30.90;99471.06;4980433;28;20026;-88
2022/03/18 10:55:22;;;;;;;20.75;8.00;;;;;;;10.96;31.16;99478.53;4979326;28;20127;-88
2022/03/18 10:57:55;;;;;;;11.50;6.75;;;;;;;10.16;32.25;99474.78;4978822;28;20034;-88
2022/03/18 11:00:22;;;;;;;9.45;6.20;;;;;;;9.48;34.05;99470.44;4978314;28;20033;-88
2022/03/18 11:02:49;;;;;;;12.68;6.60;;;;;;;9.03;33.47;99473.41;4978544;28;20450;-87
2022/03/18 11:05:19;;;;;;;14.35;7.22;;;;;;;8.97;34.52;99478.91;4962353;28;20159;-89
2022/03/18 11:07:46;;;;;;;11.65;5.65;;;;;;;8.21;35.21;99468.22;4961787;28;20047;-89
2022/03/18 11:12:56;;;;;;;17.50;6.88;;;;;;;9.70;35.57;99493.88;4970953;28;20505;-88
2022/03/18 11:15:25;;;;;;;12.48;6.43;;;;;;;9.43;33.74;99469.69;4952600;28;20026;-88
2022/03/18 11:17:52;;;;;;;17.02;6.00;;;;;;;8.79;33.36;99487.34;4943147;28;20031;-87
2022/03/18 11:20:23;;;;;;;10.38;5.53;;;;;;;8.47;33.94;99492.53;4978018;28;20022;-88
2022/03/18 11:22:49;;;;;;;13.00;5.60;;;;;;;10.16;32.36;99472.09;4962247;28;20027;-89
2022/03/18 11:25:15;;;;;;;7.78;5.32;;;;;;;11.49;28.80;99460.66;4974419;28;20121;-89
2022/03/18 11:27:44;;;;;;;13.02;5.30;;;;;;;11.84;28.91;99460.31;4957549;28;20038;-89
2022/03/18 11:30:22;;;;;;;16.35;5.65;;;;;;;11.13;30.00;99469.03;4967805;28;20035;-90
2022/03/18 11:33:06;;;;;;;10.38;6.70;;;;;;;12.43;29.95;99444.63;4961765;28;20545;-89
2022/03/18 11:35:50;;;;;;;9.50;5.70;;;;;;;14.12;26.76;99456.22;4962176;28;20479;-89
2022/03/18 11:38:25;;;;;;;10.57;6.13;;;;;;;13.54;27.83;99446.31;4961868;28;20130;-90
2022/03/18 11:40:58;;;;;;;13.43;6.25;;;;;;;14.69;27.29;99448.22;4947002;28;20034;-88
2022/03/18 11:43:33;;;;;;;9.38;6.07;;;;;;;14.30;27.38;99438.38;4963477;28;20499;-89
2022/03/18 11:46:16;;;;;;;20.88;5.72;;;;;;;14.27;26.37;99441.22;4961937;28;20082;-89
2022/03/18 11:48:49;;;;;;;7.75;5.45;;;;;;;14.45;25.83;99428.72;4962169;28;20037;-89
2022/03/18 11:51:36;;;;;;;8.73;5.88;;;;;;;14.59;26.67;99427.13;4961534;28;20042;-88
2022/03/18 11:54:12;;;;;;;11.65;5.45;;;;;;;14.67;24.84;99401.63;4979903;28;20172;-88
2022/03/18 11:56:47;;;;;;;20.65;6.97;;;;;;;16.08;24.78;99420.34;4978522;28;20031;-89
2022/03/18 11:59:28;;;;;;;8.60;6.15;;;;;;;16.20;24.04;99410.69;4977840;28;20050;-88
2022/03/18 12:01:59;;;;;;;9.68;5.90;;;;;;;15.67;24.80;99411.75;4976156;28;20462;-89
2022/03/18 12:04:34;;;;;;;9.07;5.47;;;;;;;15.27;24.53;99413.84;4978297;28;20034;-89